createdAt,value
2023-08-15T00:01:40.780Z,76.29
2023-08-15T00:04:11.911Z,76.26
2023-08-15T00:06:43.032Z,76.59
2023-08-15T00:09:14.091Z,76.70
2023-08-15T00:11:45.129Z,76.71
2023-08-15T00:14:17.189Z,76.99
2023-08-15T00:16:48.549Z,77.13
2023-08-15T00:19:19.708Z,77.28
2023-08-15T00:21:50.827Z,77.42
2023-08-15T00:24:21.919Z,77.61
2023-08-15T00:26:52.953Z,77.69
2023-08-15T00:29:24.179Z,77.82
2023-08-15T00:31:55.111Z,77.78
2023-08-15T00:34:26.257Z,77.92
2023-08-15T00:36:57.374Z,77.94
2023-08-15T00:39:28.363Z,78.06
2023-08-15T00:42:00.549Z,78.17
2023-08-15T00:44:31.551Z,78.31
2023-08-15T00:47:02.627Z,78.44
2023-08-15T00:49:33.561Z,78.40
2023-08-15T00:52:06.161Z,78.65
2023-08-15T00:54:38.089Z,78.43
2023-08-15T00:57:11.590Z,78.53
2023-08-15T00:59:44.023Z,78.72
2023-08-15T01:02:15.976Z,78.87
2023-08-15T01:04:48.402Z,78.83
2023-08-15T01:07:20.406Z,78.98
2023-08-15T01:09:52.104Z,79.16
2023-08-15T01:12:31.369Z,79.12
2023-08-15T01:15:07.116Z,79.20
2023-08-15T01:17:43.707Z,79.21
2023-08-15T01:20:19.928Z,79.11
2023-08-15T01:22:54.480Z,79.42
2023-08-15T01:25:27.440Z,79.56
2023-08-15T01:27:58.452Z,79.64
2023-08-15T01:30:29.769Z,79.54
2023-08-15T01:33:09.429Z,79.66
2023-08-15T01:35:45.374Z,79.72
2023-08-15T01:38:24.032Z,79.75
2023-08-15T01:40:57.796Z,79.91
2023-08-15T01:43:30.522Z,79.79
2023-08-15T01:46:02.782Z,79.83
2023-08-15T01:48:33.926Z,79.81
2023-08-15T01:51:05.219Z,80.00
2023-08-15T01:53:37.158Z,80.28
2023-08-15T01:56:08.604Z,80.24
2023-08-15T01:58:39.733Z,80.10
2023-08-15T02:01:10.851Z,80.21
2023-08-15T02:03:42.052Z,80.29
2023-08-15T02:06:13.114Z,80.40
2023-08-15T02:08:44.292Z,80.64
2023-08-15T02:11:15.531Z,80.91
2023-08-15T02:13:46.855Z,81.05
2023-08-15T02:16:19.218Z,81.07
2023-08-15T02:18:50.389Z,81.04
2023-08-15T02:21:21.481Z,80.90
2023-08-15T02:23:52.635Z,81.29
2023-08-15T02:26:24.741Z,81.32
2023-08-15T02:28:56.012Z,81.50
2023-08-15T02:31:31.728Z,81.49
2023-08-15T02:34:03.073Z,81.71
2023-08-15T02:36:34.129Z,81.91
2023-08-15T02:39:05.267Z,82.54
2023-08-15T02:41:36.459Z,82.90
2023-08-15T02:44:08.093Z,83.20
2023-08-15T02:46:39.169Z,83.82
2023-08-15T02:49:10.618Z,84.47
2023-08-15T02:51:41.573Z,84.35
2023-08-15T02:54:13.252Z,83.73
2023-08-15T02:56:44.257Z,83.31
2023-08-15T02:59:15.348Z,83.20
2023-08-15T03:01:46.321Z,82.96
2023-08-15T03:04:17.429Z,82.74
2023-08-15T03:06:48.635Z,82.59
2023-08-15T03:09:19.722Z,82.51
2023-08-15T03:11:50.713Z,82.53
2023-08-15T03:14:21.861Z,82.42
2023-08-15T03:16:52.942Z,82.39
2023-08-15T03:19:24.112Z,82.30
2023-08-15T03:21:55.006Z,82.25
2023-08-15T03:24:26.103Z,82.22
2023-08-15T03:26:57.116Z,82.24
2023-08-15T03:29:28.232Z,82.14
2023-08-15T03:32:00.357Z,81.91
2023-08-15T03:34:33.382Z,82.23
2023-08-15T03:37:04.395Z,82.36
2023-08-15T03:39:35.602Z,82.15
2023-08-15T03:42:07.235Z,82.33
2023-08-15T03:44:38.281Z,82.24
2023-08-15T03:47:09.586Z,82.18
2023-08-15T03:49:40.611Z,82.31
2023-08-15T03:52:12.002Z,82.79
2023-08-15T03:54:42.950Z,82.89
2023-08-15T03:57:13.981Z,82.94
2023-08-15T03:59:44.956Z,82.79
2023-08-15T04:02:16.132Z,82.96
2023-08-15T04:04:47.213Z,82.82
2023-08-15T04:07:18.339Z,82.74
2023-08-15T04:09:49.450Z,82.76
2023-08-15T04:12:20.470Z,82.84
2023-08-15T04:14:51.500Z,82.93
2023-08-15T04:17:22.830Z,82.89
2023-08-15T04:19:54.325Z,83.13
2023-08-15T04:22:25.639Z,82.89
2023-08-15T04:24:56.642Z,83.00
2023-08-15T04:27:27.863Z,83.11
2023-08-15T04:29:59.480Z,83.01
2023-08-15T04:32:30.622Z,83.04
2023-08-15T04:35:01.976Z,83.07
2023-08-15T04:37:34.260Z,82.96
2023-08-15T04:40:06.352Z,83.04
2023-08-15T04:42:37.690Z,82.99
2023-08-15T04:45:10.356Z,83.27
2023-08-15T04:47:41.421Z,83.12
2023-08-15T04:50:13.523Z,83.27
2023-08-15T04:52:44.452Z,83.36
2023-08-15T04:55:15.845Z,83.43
2023-08-15T04:57:47.018Z,83.04
2023-08-15T05:00:20.457Z,82.84
2023-08-15T05:02:52.112Z,82.46
2023-08-15T05:05:23.184Z,81.77
2023-08-15T05:07:54.276Z,81.57
2023-08-15T05:10:25.465Z,81.67
2023-08-15T05:12:57.740Z,81.06
2023-08-15T05:15:29.130Z,81.00
2023-08-15T05:18:00.284Z,80.95
2023-08-15T05:20:33.722Z,80.85
2023-08-15T05:23:04.910Z,81.11
2023-08-15T05:25:36.315Z,81.12
2023-08-15T05:28:08.640Z,81.04
2023-08-15T05:30:39.818Z,81.16
2023-08-15T05:33:11.026Z,81.23
2023-08-15T05:35:43.054Z,81.40
2023-08-15T05:38:14.240Z,81.49
2023-08-15T05:40:45.347Z,81.63
2023-08-15T05:43:16.343Z,81.54
2023-08-15T05:45:50.170Z,81.27
2023-08-15T05:48:21.289Z,80.94
2023-08-15T05:50:52.562Z,80.98
2023-08-15T05:53:23.730Z,80.83
2023-08-15T05:55:55.044Z,80.38
2023-08-15T05:58:26.224Z,79.81
2023-08-15T06:00:58.617Z,79.98
2023-08-15T06:03:49.262Z,78.50
2023-08-15T06:06:20.802Z,76.65
2023-08-15T06:08:52.412Z,75.94
2023-08-15T06:11:23.338Z,75.14
2023-08-15T06:13:54.348Z,74.08
2023-08-15T06:16:25.606Z,73.30
2023-08-15T06:18:56.973Z,71.61
2023-08-15T06:21:28.331Z,70.91
2023-08-15T06:23:59.414Z,70.33
2023-08-15T06:26:30.474Z,69.17
2023-08-15T06:29:01.463Z,69.19
2023-08-15T06:31:33.192Z,69.05
2023-08-15T06:34:05.017Z,68.30
2023-08-15T06:36:36.246Z,67.14
2023-08-15T06:39:07.851Z,66.14
2023-08-15T06:41:38.872Z,66.85
2023-08-15T06:44:10.050Z,66.61
2023-08-15T06:46:41.050Z,65.05
2023-08-15T06:49:12.161Z,64.02
2023-08-15T06:51:43.151Z,64.09
2023-08-15T06:54:14.061Z,64.23
2023-08-15T06:56:45.092Z,62.97
2023-08-15T06:59:16.315Z,63.16
2023-08-15T07:01:49.083Z,62.93
2023-08-15T07:04:20.873Z,63.59
2023-08-15T07:06:52.001Z,62.99
2023-08-15T07:09:23.264Z,62.71
2023-08-15T07:11:54.501Z,63.27
2023-08-15T07:14:25.865Z,62.91
2023-08-15T07:16:57.256Z,62.65
2023-08-15T07:19:28.499Z,62.88
2023-08-15T07:21:59.398Z,61.96
2023-08-15T07:24:30.640Z,61.69
2023-08-15T07:27:02.442Z,60.29
2023-08-15T07:29:34.017Z,60.19
2023-08-15T07:32:07.403Z,60.54
2023-08-15T07:34:38.877Z,59.57
2023-08-15T07:37:10.000Z,59.59
2023-08-15T07:39:41.134Z,59.17
2023-08-15T07:42:12.465Z,60.01
2023-08-15T07:44:43.559Z,59.47
2023-08-15T07:47:15.032Z,59.22
2023-08-15T07:49:46.515Z,59.80
2023-08-15T07:52:18.281Z,59.06
2023-08-15T07:54:49.331Z,58.90
2023-08-15T07:57:20.481Z,57.67
2023-08-15T07:59:52.595Z,57.58
2023-08-15T08:02:24.382Z,57.83
2023-08-15T08:04:55.836Z,58.06
2023-08-15T08:07:27.125Z,58.40
2023-08-15T08:09:58.717Z,58.11
2023-08-15T08:12:29.829Z,59.33
2023-08-15T08:15:01.180Z,57.38
2023-08-15T08:17:35.018Z,56.98
2023-08-15T08:20:12.644Z,57.31
2023-08-15T08:22:43.542Z,55.94
2023-08-15T08:25:25.086Z,56.76
2023-08-15T08:27:56.450Z,55.86
2023-08-15T08:30:29.698Z,56.28
2023-08-15T08:33:01.852Z,55.90
2023-08-15T08:35:33.194Z,54.65
2023-08-15T08:38:04.940Z,53.65
2023-08-15T08:40:36.610Z,53.98
2023-08-15T08:43:08.347Z,54.23
2023-08-15T08:45:47.696Z,53.96
2023-08-15T08:48:19.790Z,53.95
2023-08-15T08:50:52.016Z,53.37
2023-08-15T08:53:23.125Z,54.29
2023-08-15T08:55:54.938Z,53.78
2023-08-15T08:58:29.285Z,54.25
2023-08-15T09:01:04.018Z,53.21
2023-08-15T09:03:35.503Z,52.20
2023-08-15T09:06:07.670Z,49.71
2023-08-15T09:08:38.712Z,50.40
2023-08-15T09:11:09.764Z,51.62
2023-08-15T09:13:49.435Z,52.20
2023-08-15T09:16:20.591Z,50.22
2023-08-15T09:18:52.212Z,50.14
2023-08-15T09:21:24.273Z,48.92
2023-08-15T09:23:58.198Z,48.85
2023-08-15T09:26:34.050Z,49.09
2023-08-15T09:29:06.019Z,48.99
2023-08-15T09:31:37.338Z,49.93
2023-08-15T09:34:13.750Z,48.87
2023-08-15T09:36:44.780Z,49.51
2023-08-15T09:39:16.451Z,48.94
2023-08-15T09:41:49.716Z,49.59
2023-08-15T09:44:34.242Z,49.65
2023-08-15T09:47:07.877Z,49.30
2023-08-15T09:49:39.484Z,49.41
2023-08-15T09:52:12.942Z,47.40
2023-08-15T09:54:45.230Z,48.54
2023-08-15T09:57:16.362Z,48.50
2023-08-15T09:59:47.662Z,48.03
2023-08-15T10:02:25.044Z,48.05
2023-08-15T10:05:02.509Z,48.20
2023-08-15T10:07:35.797Z,48.30
2023-08-15T10:10:09.256Z,49.53
2023-08-15T10:12:42.510Z,49.35
2023-08-15T10:15:14.446Z,49.09
2023-08-15T10:17:46.778Z,48.76
2023-08-15T10:20:20.394Z,48.06
2023-08-15T10:23:00.066Z,49.28
2023-08-15T10:25:42.480Z,48.66
2023-08-15T10:28:14.544Z,48.03
2023-08-15T10:30:52.350Z,48.74
2023-08-15T10:33:25.757Z,49.21
2023-08-15T10:36:10.950Z,49.25
2023-08-15T10:38:46.341Z,48.62
2023-08-15T10:41:19.059Z,47.95
2023-08-15T10:43:52.614Z,47.97
2023-08-15T10:46:29.807Z,48.57
2023-08-15T10:49:04.646Z,49.00
2023-08-15T10:51:37.358Z,48.69
2023-08-15T10:54:10.962Z,48.35
2023-08-15T10:56:43.343Z,47.09
2023-08-15T10:59:16.317Z,46.96
2023-08-15T11:01:49.455Z,46.77
2023-08-15T11:04:21.547Z,47.11
2023-08-15T11:06:54.007Z,46.71
2023-08-15T11:09:30.912Z,46.78
2023-08-15T11:12:09.593Z,47.09
2023-08-15T11:14:40.703Z,46.28
2023-08-15T11:17:13.997Z,45.80
2023-08-15T11:19:45.803Z,46.26
2023-08-15T11:22:18.140Z,45.57
2023-08-15T11:24:53.235Z,45.49
2023-08-15T11:27:24.758Z,45.41
2023-08-15T11:30:01.296Z,46.23
2023-08-15T11:32:35.169Z,45.92
2023-08-15T11:35:07.759Z,45.46
2023-08-15T11:37:39.028Z,44.58
2023-08-15T11:40:11.887Z,43.47
2023-08-15T11:42:43.135Z,41.88
2023-08-15T11:45:20.828Z,41.49
2023-08-15T11:48:02.750Z,41.08
2023-08-15T11:50:44.251Z,42.07
2023-08-15T11:53:17.725Z,41.27
2023-08-15T11:55:49.941Z,41.12
2023-08-15T11:58:28.914Z,42.03
2023-08-15T12:01:02.788Z,40.93
2023-08-15T12:03:35.649Z,41.71
2023-08-15T12:06:12.932Z,42.31
2023-08-15T12:08:47.265Z,42.78
2023-08-15T12:11:24.551Z,41.43
2023-08-15T12:13:55.582Z,40.73
2023-08-15T12:16:26.996Z,40.78
2023-08-15T12:18:58.087Z,41.68
2023-08-15T12:21:29.152Z,40.93
2023-08-15T12:24:00.708Z,40.20
2023-08-15T12:26:31.714Z,39.75
2023-08-15T12:29:02.706Z,40.39
2023-08-15T12:31:34.191Z,39.94
2023-08-15T12:34:05.737Z,40.12
2023-08-15T12:36:36.883Z,40.34
2023-08-15T12:39:09.038Z,40.66
2023-08-15T12:41:40.245Z,39.42
2023-08-15T12:44:11.339Z,39.77
2023-08-15T12:46:42.515Z,38.89
2023-08-15T12:49:13.746Z,38.83
2023-08-15T12:51:44.758Z,39.25
2023-08-15T12:54:17.529Z,40.32
2023-08-15T12:56:49.459Z,39.90
2023-08-15T12:59:20.644Z,39.53
2023-08-15T13:01:52.040Z,39.59
2023-08-15T13:04:23.439Z,38.32
2023-08-15T13:06:54.446Z,37.82
2023-08-15T13:09:26.011Z,38.23
2023-08-15T13:11:57.406Z,37.92
2023-08-15T13:14:33.607Z,38.01
2023-08-15T13:17:09.458Z,38.18
2023-08-15T13:19:42.769Z,37.99
2023-08-15T13:22:20.982Z,37.25
2023-08-15T13:24:52.483Z,37.33
2023-08-15T13:27:23.544Z,37.21
2023-08-15T13:29:54.776Z,38.08
2023-08-15T13:32:26.004Z,38.14
2023-08-15T13:34:57.095Z,37.20
2023-08-15T13:37:28.098Z,37.87
2023-08-15T13:40:00.988Z,36.34
2023-08-15T13:42:38.730Z,36.92
2023-08-15T13:45:13.198Z,37.28
2023-08-15T13:47:44.636Z,37.51
2023-08-15T13:50:15.664Z,38.01
2023-08-15T13:52:46.995Z,36.69
2023-08-15T13:55:18.359Z,36.66
2023-08-15T13:57:49.502Z,36.86
2023-08-15T14:00:20.969Z,37.40
2023-08-15T14:02:52.062Z,36.45
2023-08-15T14:05:23.420Z,36.35
2023-08-15T14:07:54.905Z,36.62
2023-08-15T14:10:26.701Z,35.92
2023-08-15T14:12:57.845Z,36.11
2023-08-15T14:15:30.090Z,36.04
2023-08-15T14:18:01.626Z,34.99
2023-08-15T14:20:35.509Z,35.24
2023-08-15T14:23:07.264Z,35.05
2023-08-15T14:25:38.441Z,35.19
2023-08-15T14:28:09.591Z,35.31
2023-08-15T14:30:41.495Z,36.24
2023-08-15T14:33:13.552Z,34.47
2023-08-15T14:35:44.665Z,34.66
2023-08-15T14:38:16.362Z,33.30
2023-08-15T14:40:47.649Z,32.95
2023-08-15T14:43:18.928Z,33.28
2023-08-15T14:45:50.213Z,32.37
2023-08-15T14:48:21.706Z,31.83
2023-08-15T14:50:53.735Z,31.16
2023-08-15T14:53:25.939Z,31.39
2023-08-15T14:55:58.089Z,31.21
2023-08-15T14:58:29.125Z,31.16
2023-08-15T15:01:00.136Z,30.43
2023-08-15T15:03:31.537Z,30.42
2023-08-15T15:06:02.711Z,30.92
2023-08-15T15:08:34.693Z,30.53
2023-08-15T15:11:06.292Z,29.53
2023-08-15T15:13:37.629Z,29.72
2023-08-15T15:16:08.708Z,29.63
2023-08-15T15:18:39.765Z,30.07
2023-08-15T15:21:10.974Z,30.09
2023-08-15T15:23:41.948Z,29.74
2023-08-15T15:26:13.064Z,29.90
2023-08-15T15:28:44.323Z,29.49
2023-08-15T15:31:15.479Z,29.17
2023-08-15T15:33:46.583Z,29.01
2023-08-15T15:36:17.828Z,29.43
2023-08-15T15:38:49.618Z,29.61
2023-08-15T15:41:20.775Z,29.29
2023-08-15T15:43:51.824Z,29.67
2023-08-15T15:46:22.762Z,30.71
2023-08-15T15:48:53.793Z,30.51
2023-08-15T15:51:24.705Z,30.89
2023-08-15T15:53:55.966Z,31.08
2023-08-15T15:56:27.503Z,31.24
2023-08-15T15:58:58.570Z,30.93
2023-08-15T16:01:30.406Z,30.88
2023-08-15T16:04:02.056Z,30.80
2023-08-15T16:06:33.372Z,30.92
2023-08-15T16:09:04.588Z,30.57
2023-08-15T16:11:35.930Z,31.13
2023-08-15T16:14:07.866Z,31.57
2023-08-15T16:16:38.847Z,30.74
2023-08-15T16:19:10.699Z,30.64
2023-08-15T16:21:42.254Z,30.59
2023-08-15T16:24:13.362Z,30.37
2023-08-15T16:26:44.617Z,31.07
2023-08-15T16:29:15.651Z,32.56
2023-08-15T16:31:46.673Z,32.01
2023-08-15T16:34:17.845Z,31.88
2023-08-15T16:36:49.071Z,31.56
2023-08-15T16:39:20.230Z,32.24
2023-08-15T16:41:51.290Z,31.65
2023-08-15T16:44:22.612Z,31.87
2023-08-15T16:46:53.668Z,32.93
2023-08-15T16:49:25.207Z,32.58
2023-08-15T16:51:56.165Z,33.42
2023-08-15T16:54:27.385Z,33.45
2023-08-15T16:56:58.332Z,33.71
2023-08-15T16:59:29.440Z,35.48
2023-08-15T17:02:00.899Z,35.74
2023-08-15T17:04:32.601Z,36.27
2023-08-15T17:07:04.387Z,37.75
2023-08-15T17:09:35.473Z,38.69
2023-08-15T17:12:09.518Z,39.63
2023-08-15T17:14:40.549Z,40.51
2023-08-15T17:17:11.693Z,41.46
2023-08-15T17:19:44.384Z,42.53
2023-08-15T17:22:16.958Z,43.09
2023-08-15T17:24:48.793Z,43.29
2023-08-15T17:27:20.657Z,42.50
2023-08-15T17:29:52.464Z,43.12
2023-08-15T17:32:24.054Z,44.06
2023-08-15T17:34:55.993Z,45.31
2023-08-15T17:37:27.163Z,45.95
2023-08-15T17:39:58.366Z,46.71
2023-08-15T17:42:29.978Z,47.52
2023-08-15T17:45:01.057Z,48.21
2023-08-15T17:47:34.004Z,48.87
2023-08-15T17:50:05.754Z,49.65
2023-08-15T17:52:37.405Z,50.23
2023-08-15T17:55:09.608Z,51.22
2023-08-15T17:57:40.643Z,51.57
2023-08-15T18:00:14.104Z,52.28
2023-08-15T18:02:45.841Z,53.12
2023-08-15T18:05:17.009Z,53.93
2023-08-15T18:07:48.079Z,54.68
2023-08-15T18:10:20.579Z,54.96
2023-08-15T18:12:51.682Z,55.95
2023-08-15T18:15:23.216Z,57.14
2023-08-15T18:17:54.379Z,57.52
2023-08-15T18:20:25.607Z,57.92
2023-08-15T18:22:56.810Z,58.68
2023-08-15T18:25:27.815Z,59.20
2023-08-15T18:27:58.858Z,59.92
2023-08-15T18:30:29.893Z,60.41
2023-08-15T18:33:01.102Z,60.92
2023-08-15T18:35:33.430Z,61.38
2023-08-15T18:38:04.693Z,62.00
2023-08-15T18:40:37.619Z,62.39
2023-08-15T18:43:10.677Z,62.57
2023-08-15T18:45:48.879Z,62.86
2023-08-15T18:48:21.899Z,62.91
2023-08-15T18:50:54.183Z,63.24
2023-08-15T18:53:25.517Z,64.00
2023-08-15T18:55:56.670Z,64.26
2023-08-15T18:58:27.909Z,64.03
2023-08-15T19:00:58.957Z,64.69
2023-08-15T19:03:30.203Z,65.21
2023-08-15T19:06:01.265Z,65.50
2023-08-15T19:08:34.924Z,65.98
2023-08-15T19:11:06.627Z,66.38
2023-08-15T19:13:38.124Z,66.71
2023-08-15T19:16:09.414Z,67.26
2023-08-15T19:18:40.482Z,67.44
2023-08-15T19:21:12.869Z,67.73
2023-08-15T19:23:45.518Z,67.83
2023-08-15T19:26:16.799Z,67.92
2023-08-15T19:28:49.438Z,67.98
2023-08-15T19:31:20.520Z,67.99
2023-08-15T19:33:51.947Z,68.30
2023-08-15T19:36:23.163Z,68.35
2023-08-15T19:38:54.217Z,68.63
2023-08-15T19:41:25.435Z,69.00
2023-08-15T19:43:59.676Z,69.16
2023-08-15T19:46:30.729Z,69.45
2023-08-15T19:49:01.622Z,69.92
2023-08-15T19:51:32.662Z,70.09
2023-08-15T19:54:03.828Z,70.48
2023-08-15T19:56:37.108Z,70.55
2023-08-15T19:59:08.275Z,70.66
2023-08-15T20:01:39.564Z,70.98
2023-08-15T20:04:10.703Z,71.04
2023-08-15T20:06:42.171Z,70.95
2023-08-15T20:09:13.851Z,71.05
2023-08-15T20:11:45.086Z,71.22
2023-08-15T20:14:18.877Z,71.29
2023-08-15T20:16:50.380Z,71.49
2023-08-15T20:19:21.381Z,71.54
2023-08-15T20:21:58.677Z,71.55
2023-08-15T20:24:29.732Z,71.64
2023-08-15T20:27:00.889Z,72.09
2023-08-15T20:29:32.090Z,72.14
2023-08-15T20:32:03.088Z,72.48
2023-08-15T20:34:34.121Z,72.67
2023-08-15T20:37:06.051Z,72.88
2023-08-15T20:39:37.265Z,72.83
2023-08-15T20:42:10.247Z,73.19
2023-08-15T20:44:41.739Z,73.44
2023-08-15T20:47:13.100Z,73.59
2023-08-15T20:49:44.636Z,73.66
2023-08-15T20:52:15.915Z,73.86
2023-08-15T20:54:47.422Z,74.13
2023-08-15T20:57:19.752Z,74.38
2023-08-15T20:59:51.383Z,74.16
2023-08-15T21:02:22.798Z,74.37
2023-08-15T21:04:54.415Z,74.44
2023-08-15T21:07:25.737Z,74.77
2023-08-15T21:09:57.478Z,75.06
2023-08-15T21:12:28.530Z,75.61
2023-08-15T21:14:59.489Z,75.67
2023-08-15T21:17:30.436Z,75.59
2023-08-15T21:20:01.359Z,75.70
2023-08-15T21:22:33.972Z,75.77
2023-08-15T21:25:05.222Z,75.98
2023-08-15T21:27:36.432Z,76.25
2023-08-15T21:30:09.230Z,76.62
2023-08-15T21:32:40.271Z,76.98
2023-08-15T21:35:11.935Z,77.07
2023-08-15T21:37:43.047Z,76.96
2023-08-15T21:40:15.032Z,76.67
2023-08-15T21:42:46.126Z,77.11
2023-08-15T21:45:17.459Z,77.15
2023-08-15T21:47:49.186Z,77.24
2023-08-15T21:50:20.320Z,77.19
2023-08-15T21:52:51.446Z,77.25
2023-08-15T21:55:22.431Z,77.11
2023-08-15T21:57:54.650Z,76.98
2023-08-15T22:00:27.707Z,77.06
2023-08-15T22:02:59.274Z,77.07
2023-08-15T22:05:39.933Z,77.22
2023-08-15T22:08:11.581Z,77.32
2023-08-15T22:10:43.071Z,77.52
2023-08-15T22:13:14.315Z,77.25
2023-08-15T22:15:46.647Z,77.36
2023-08-15T22:18:21.304Z,77.43
2023-08-15T22:20:54.482Z,77.38
2023-08-15T22:23:25.515Z,77.58
2023-08-15T22:25:56.488Z,78.11
2023-08-15T22:28:27.689Z,78.19
2023-08-15T22:30:58.631Z,78.36
2023-08-15T22:33:29.716Z,78.48
2023-08-15T22:36:00.837Z,78.18
2023-08-15T22:38:31.729Z,78.19
2023-08-15T22:41:02.837Z,78.28
2023-08-15T22:43:33.791Z,78.24
2023-08-15T22:46:05.368Z,78.27
2023-08-15T22:48:36.756Z,78.80
2023-08-15T22:51:07.815Z,79.17
2023-08-15T22:53:40.713Z,79.39
2023-08-15T22:56:11.753Z,79.41
2023-08-15T22:58:43.023Z,79.37
2023-08-15T23:01:14.432Z,79.27
2023-08-15T23:03:45.955Z,79.08
2023-08-15T23:06:17.385Z,79.13
2023-08-15T23:08:49.141Z,79.11
2023-08-15T23:11:20.167Z,79.42
2023-08-15T23:13:51.223Z,79.30
2023-08-15T23:16:22.198Z,79.21
2023-08-15T23:18:53.251Z,79.47
2023-08-15T23:21:24.244Z,79.47
2023-08-15T23:23:55.249Z,79.64
2023-08-15T23:26:26.430Z,80.02
2023-08-15T23:28:57.470Z,80.95
2023-08-15T23:31:36.761Z,80.86
2023-08-15T23:34:08.712Z,81.20
2023-08-15T23:36:39.749Z,81.36
2023-08-15T23:39:10.765Z,81.47
2023-08-15T23:41:41.850Z,81.11
2023-08-15T23:44:13.119Z,81.15
2023-08-15T23:46:45.061Z,80.99
2023-08-15T23:49:16.563Z,80.76
2023-08-15T23:51:48.530Z,80.65
2023-08-15T23:54:19.521Z,80.58
2023-08-15T23:56:50.637Z,80.51
2023-08-15T23:59:21.945Z,80.61
